WIA836 TNCM-TLPL
Flight info
| Callsign | WIA836 |
|---|---|
| Flight time | 1h 12m |
| Altitude | 25000 |
| Route | MODOR2 ELOPO UB520 ANU UA312 FOF DCT BISNO |
| Aircraft | AT46/M-SDFGIRY/S |
Departure
| Time | 2026-05-03 23:28 |
|---|---|
| Airport | Princess Juliana International Airport (TNCM) |
Arrival
| Time | 2026-05-04 00:40 |
|---|---|
| Airport | Hewanorra International Airport (TLPL) |
| Time | Latitude | Longitude | Altitude | Speed | Heading |
|---|---|---|---|---|---|
| 2026-05-03 22:43 | 18.04208 | -63.11062 | 25 ft | 0 kts | 240° |
| 2026-05-03 23:09 | 18.04208 | -63.11061 | 25 ft | 0 kts | 240° |
| 2026-05-03 23:18 | 18.04209 | -63.11061 | 25 ft | 0 kts | 240° |
| 2026-05-03 23:22 | 18.04207 | -63.11063 | 25 ft | 2 kts | 239° |
| 2026-05-03 23:22 | 18.04201 | -63.11072 | 25 ft | 3 kts | 230° |
| 2026-05-03 23:23 | 18.04163 | -63.11115 | 26 ft | 9 kts | 234° |
| 2026-05-03 23:23 | 18.04149 | -63.11176 | 25 ft | 6 kts | 262° |
| 2026-05-03 23:23 | 18.04142 | -63.11219 | 28 ft | 10 kts | 260° |
| 2026-05-03 23:23 | 18.04135 | -63.11283 | 25 ft | 8 kts | 288° |
| 2026-05-03 23:24 | 18.04196 | -63.11309 | 25 ft | 6 kts | 351° |
| 2026-05-03 23:24 | 18.04215 | -63.11313 | 29 ft | 6 kts | 339° |
| 2026-05-03 23:24 | 18.04239 | -63.11361 | 29 ft | 11 kts | 266° |
| 2026-05-03 23:24 | 18.04226 | -63.11453 | 27 ft | 12 kts | 259° |
| 2026-05-03 23:25 | 18.04171 | -63.11542 | 25 ft | 18 kts | 231° |
| 2026-05-03 23:25 | 18.04111 | -63.11621 | 26 ft | 12 kts | 231° |
| 2026-05-03 23:25 | 18.04072 | -63.11674 | 24 ft | 10 kts | 242° |
| 2026-05-03 23:25 | 18.04055 | -63.11755 | 24 ft | 14 kts | 261° |
| 2026-05-03 23:26 | 18.04044 | -63.11831 | 24 ft | 3 kts | 261° |
| 2026-05-03 23:26 | 18.04041 | -63.11848 | 27 ft | 11 kts | 258° |
| 2026-05-03 23:26 | 18.04016 | -63.11914 | 26 ft | 10 kts | 237° |
| 2026-05-03 23:26 | 18.03972 | -63.11960 | 25 ft | 5 kts | 182° |
| 2026-05-03 23:27 | 18.03951 | -63.11933 | 26 ft | 4 kts | 91° |
| 2026-05-03 23:27 | 18.03954 | -63.11910 | 28 ft | 12 kts | 80° |
| 2026-05-03 23:27 | 18.04014 | -63.11566 | 25 ft | 84 kts | 83° |
| 2026-05-03 23:27 | 18.04128 | -63.10748 | 53 ft | 135 kts | 81° |
| 2026-05-03 23:28 | 18.04244 | -63.09761 | 580 ft | 138 kts | 86° |
| 2026-05-03 23:28 | 18.04163 | -63.08704 | 937 ft | 155 kts | 107° |
| 2026-05-03 23:28 | 18.03580 | -63.07646 | 1211 ft | 179 kts | 125° |
| 2026-05-03 23:28 | 18.02793 | -63.06630 | 1731 ft | 178 kts | 127° |
| 2026-05-03 23:29 | 18.01975 | -63.05657 | 2370 ft | 175 kts | 129° |
| 2026-05-03 23:29 | 18.01095 | -63.04776 | 2887 ft | 181 kts | 150° |
| 2026-05-03 23:29 | 17.99831 | -63.04450 | 3257 ft | 196 kts | 162° |
| 2026-05-03 23:29 | 17.98699 | -63.03725 | 3617 ft | 195 kts | 122° |
| 2026-05-03 23:30 | 17.98109 | -63.02446 | 3976 ft | 198 kts | 113° |
| 2026-05-03 23:30 | 17.97507 | -63.01116 | 4339 ft | 204 kts | 115° |
| 2026-05-03 23:30 | 17.96821 | -62.99792 | 4709 ft | 208 kts | 118° |
| 2026-05-03 23:30 | 17.96033 | -62.98497 | 5071 ft | 212 kts | 122° |
| 2026-05-03 23:31 | 17.95162 | -62.97233 | 5436 ft | 215 kts | 125° |
| 2026-05-03 23:31 | 17.94244 | -62.95979 | 5806 ft | 218 kts | 126° |
| 2026-05-03 23:31 | 17.93310 | -62.94719 | 6170 ft | 220 kts | 126° |
| 2026-05-03 23:31 | 17.92387 | -62.93462 | 6528 ft | 221 kts | 126° |
| 2026-05-03 23:32 | 17.91453 | -62.92174 | 6871 ft | 222 kts | 126° |
| 2026-05-03 23:32 | 17.90522 | -62.90872 | 7221 ft | 224 kts | 126° |
| 2026-05-03 23:32 | 17.89585 | -62.89564 | 7567 ft | 225 kts | 126° |
| 2026-05-03 23:32 | 17.88648 | -62.88252 | 7920 ft | 225 kts | 126° |
| 2026-05-03 23:33 | 17.87703 | -62.86934 | 8283 ft | 226 kts | 126° |
| 2026-05-03 23:33 | 17.86755 | -62.85616 | 8653 ft | 227 kts | 126° |
| 2026-05-03 23:33 | 17.85801 | -62.84290 | 9023 ft | 228 kts | 126° |
| 2026-05-03 23:33 | 17.84845 | -62.82963 | 9397 ft | 228 kts | 127° |
| 2026-05-03 23:34 | 17.83890 | -62.81633 | 9769 ft | 229 kts | 127° |
| 2026-05-03 23:34 | 17.82929 | -62.80295 | 10120 ft | 230 kts | 127° |
| 2026-05-03 23:34 | 17.81952 | -62.78942 | 10363 ft | 235 kts | 127° |
| 2026-05-03 23:34 | 17.80956 | -62.77563 | 10597 ft | 239 kts | 127° |
| 2026-05-03 23:35 | 17.79941 | -62.76157 | 10826 ft | 243 kts | 127° |
| 2026-05-03 23:35 | 17.78929 | -62.74752 | 11060 ft | 246 kts | 127° |
| 2026-05-03 23:35 | 17.77892 | -62.73313 | 11284 ft | 248 kts | 127° |
| 2026-05-03 23:35 | 17.76847 | -62.71863 | 11522 ft | 250 kts | 127° |
| 2026-05-03 23:36 | 17.75798 | -62.70399 | 11768 ft | 252 kts | 127° |
| 2026-05-03 23:36 | 17.74739 | -62.68928 | 12012 ft | 253 kts | 127° |
| 2026-05-03 23:36 | 17.73675 | -62.67449 | 12251 ft | 254 kts | 126° |
| 2026-05-03 23:36 | 17.72603 | -62.65970 | 12492 ft | 254 kts | 126° |
| 2026-05-03 23:37 | 17.71532 | -62.64491 | 12741 ft | 255 kts | 126° |
| 2026-05-03 23:37 | 17.70465 | -62.63009 | 12989 ft | 255 kts | 126° |
| 2026-05-03 23:37 | 17.69397 | -62.61527 | 13239 ft | 255 kts | 126° |
| 2026-05-03 23:37 | 17.68344 | -62.60069 | 13488 ft | 254 kts | 126° |
| 2026-05-03 23:38 | 17.67274 | -62.58591 | 13744 ft | 255 kts | 126° |
| 2026-05-03 23:38 | 17.66212 | -62.57107 | 13982 ft | 254 kts | 126° |
| 2026-05-03 23:38 | 17.65147 | -62.55627 | 14209 ft | 254 kts | 126° |
| 2026-05-03 23:38 | 17.64092 | -62.54146 | 14433 ft | 253 kts | 125° |
| 2026-05-03 23:39 | 17.63052 | -62.52653 | 14660 ft | 253 kts | 126° |
| 2026-05-03 23:39 | 17.62016 | -62.51161 | 14892 ft | 253 kts | 125° |
| 2026-05-03 23:39 | 17.60982 | -62.49670 | 15122 ft | 253 kts | 125° |
| 2026-05-03 23:39 | 17.59953 | -62.48177 | 15355 ft | 252 kts | 125° |
| 2026-05-03 23:40 | 17.58938 | -62.46709 | 15584 ft | 252 kts | 125° |
| 2026-05-03 23:40 | 17.57906 | -62.45221 | 15818 ft | 252 kts | 125° |
| 2026-05-03 23:40 | 17.56881 | -62.43736 | 16059 ft | 252 kts | 125° |
| 2026-05-03 23:40 | 17.55853 | -62.42253 | 16290 ft | 251 kts | 125° |
| 2026-05-03 23:41 | 17.54825 | -62.40770 | 16538 ft | 251 kts | 126° |
| 2026-05-03 23:41 | 17.53800 | -62.39291 | 16785 ft | 251 kts | 125° |
| 2026-05-03 23:41 | 17.52774 | -62.37813 | 17034 ft | 250 kts | 126° |
| 2026-05-03 23:41 | 17.51751 | -62.36335 | 17279 ft | 250 kts | 126° |
| 2026-05-03 23:42 | 17.50730 | -62.34863 | 17531 ft | 250 kts | 126° |
| 2026-05-03 23:42 | 17.49725 | -62.33415 | 17784 ft | 249 kts | 126° |
| 2026-05-03 23:42 | 17.48710 | -62.31951 | 18033 ft | 248 kts | 126° |
| 2026-05-03 23:42 | 17.47695 | -62.30490 | 18290 ft | 248 kts | 126° |
| 2026-05-03 23:43 | 17.46685 | -62.29031 | 18519 ft | 247 kts | 126° |
| 2026-05-03 23:43 | 17.45674 | -62.27578 | 18742 ft | 247 kts | 126° |
| 2026-05-03 23:43 | 17.44669 | -62.26125 | 18966 ft | 246 kts | 126° |
| 2026-05-03 23:43 | 17.43663 | -62.24675 | 19192 ft | 245 kts | 125° |
| 2026-05-03 23:44 | 17.42662 | -62.23236 | 19418 ft | 244 kts | 126° |
| 2026-05-03 23:44 | 17.41665 | -62.21799 | 19647 ft | 243 kts | 125° |
| 2026-05-03 23:44 | 17.40685 | -62.20387 | 19875 ft | 242 kts | 126° |
| 2026-05-03 23:44 | 17.39697 | -62.18963 | 20106 ft | 242 kts | 125° |
| 2026-05-03 23:45 | 17.38694 | -62.17498 | 20349 ft | 254 kts | 125° |
| 2026-05-03 23:45 | 17.37649 | -62.15963 | 20586 ft | 264 kts | 125° |
| 2026-05-03 23:45 | 17.36556 | -62.14381 | 20832 ft | 273 kts | 126° |
| 2026-05-03 23:45 | 17.35421 | -62.12757 | 21078 ft | 280 kts | 125° |
| 2026-05-03 23:46 | 17.34259 | -62.11101 | 21315 ft | 286 kts | 126° |
| 2026-05-03 23:46 | 17.33077 | -62.09403 | 21555 ft | 291 kts | 126° |
| 2026-05-03 23:46 | 17.31897 | -62.07705 | 21804 ft | 295 kts | 126° |
| 2026-05-03 23:46 | 17.30687 | -62.05963 | 22053 ft | 297 kts | 126° |
| 2026-05-03 23:47 | 17.29464 | -62.04206 | 22297 ft | 300 kts | 126° |
| 2026-05-03 23:47 | 17.28230 | -62.02438 | 22551 ft | 301 kts | 126° |
| 2026-05-03 23:47 | 17.26995 | -62.00665 | 22805 ft | 302 kts | 126° |
| 2026-05-03 23:47 | 17.25758 | -61.98886 | 23061 ft | 302 kts | 126° |
| 2026-05-03 23:48 | 17.24519 | -61.97106 | 23328 ft | 303 kts | 126° |
| 2026-05-03 23:48 | 17.23277 | -61.95325 | 23584 ft | 303 kts | 126° |
| 2026-05-03 23:48 | 17.22038 | -61.93550 | 23810 ft | 302 kts | 126° |
| 2026-05-03 23:48 | 17.20799 | -61.91773 | 24022 ft | 302 kts | 126° |
| 2026-05-03 23:49 | 17.19577 | -61.90022 | 24239 ft | 301 kts | 126° |
| 2026-05-03 23:49 | 17.18342 | -61.88253 | 24459 ft | 301 kts | 126° |
| 2026-05-03 23:49 | 17.17110 | -61.86490 | 24695 ft | 299 kts | 126° |
| 2026-05-03 23:49 | 17.15884 | -61.84733 | 24857 ft | 301 kts | 126° |
| 2026-05-03 23:50 | 17.14640 | -61.82951 | 24925 ft | 306 kts | 126° |
| 2026-05-03 23:50 | 17.13806 | -61.81756 | 24952 ft | 308 kts | 126° |
| 2026-05-03 23:50 | 17.11673 | -61.79795 | 24985 ft | 311 kts | 153° |
| 2026-05-03 23:50 | 17.09656 | -61.78945 | 24991 ft | 315 kts | 164° |
| 2026-05-03 23:51 | 17.07548 | -61.78364 | 24996 ft | 319 kts | 167° |
| 2026-05-03 23:51 | 17.05375 | -61.77818 | 24997 ft | 323 kts | 167° |
| 2026-05-03 23:51 | 17.03190 | -61.77219 | 25000 ft | 326 kts | 166° |
| 2026-05-03 23:51 | 17.01012 | -61.76552 | 24997 ft | 327 kts | 164° |
| 2026-05-03 23:52 | 16.98820 | -61.75870 | 24995 ft | 329 kts | 165° |
| 2026-05-03 23:52 | 16.96619 | -61.75203 | 24992 ft | 330 kts | 165° |
| 2026-05-03 23:52 | 16.94414 | -61.74537 | 24991 ft | 331 kts | 165° |
| 2026-05-03 23:52 | 16.92199 | -61.73865 | 24993 ft | 332 kts | 165° |
| 2026-05-03 23:53 | 16.89981 | -61.73194 | 24992 ft | 332 kts | 165° |
| 2026-05-03 23:53 | 16.87789 | -61.72532 | 24993 ft | 333 kts | 165° |
| 2026-05-03 23:53 | 16.85556 | -61.71857 | 24989 ft | 334 kts | 165° |
| 2026-05-03 23:53 | 16.83327 | -61.71178 | 24987 ft | 334 kts | 165° |
| 2026-05-03 23:54 | 16.81095 | -61.70505 | 24985 ft | 334 kts | 165° |
| 2026-05-03 23:54 | 16.78862 | -61.69829 | 24983 ft | 334 kts | 165° |
| 2026-05-03 23:54 | 16.76629 | -61.69154 | 24985 ft | 334 kts | 165° |
| 2026-05-03 23:54 | 16.74393 | -61.68478 | 24980 ft | 335 kts | 165° |
| 2026-05-03 23:55 | 16.72153 | -61.67804 | 24980 ft | 336 kts | 165° |
| 2026-05-03 23:55 | 16.69937 | -61.67135 | 24981 ft | 335 kts | 165° |
| 2026-05-03 23:55 | 16.67697 | -61.66451 | 24980 ft | 335 kts | 165° |
| 2026-05-03 23:55 | 16.65454 | -61.65777 | 24980 ft | 335 kts | 165° |
| 2026-05-03 23:56 | 16.63216 | -61.65102 | 24983 ft | 335 kts | 165° |
| 2026-05-03 23:56 | 16.60980 | -61.64428 | 24984 ft | 335 kts | 165° |
| 2026-05-03 23:56 | 16.58742 | -61.63752 | 24982 ft | 335 kts | 165° |
| 2026-05-03 23:56 | 16.56505 | -61.63079 | 24982 ft | 335 kts | 165° |
| 2026-05-03 23:57 | 16.54265 | -61.62402 | 24983 ft | 335 kts | 165° |
| 2026-05-03 23:57 | 16.52029 | -61.61726 | 24981 ft | 335 kts | 165° |
| 2026-05-03 23:57 | 16.49825 | -61.61063 | 24981 ft | 334 kts | 165° |
| 2026-05-03 23:57 | 16.47593 | -61.60389 | 24978 ft | 334 kts | 165° |
| 2026-05-03 23:58 | 16.45362 | -61.59719 | 24976 ft | 334 kts | 165° |
| 2026-05-03 23:58 | 16.43124 | -61.59043 | 24976 ft | 334 kts | 165° |
| 2026-05-03 23:58 | 16.40891 | -61.58371 | 24976 ft | 334 kts | 165° |
| 2026-05-03 23:58 | 16.38656 | -61.57697 | 24974 ft | 335 kts | 165° |
| 2026-05-03 23:59 | 16.36419 | -61.57024 | 24973 ft | 334 kts | 165° |
| 2026-05-03 23:59 | 16.34184 | -61.56354 | 24973 ft | 334 kts | 165° |
| 2026-05-03 23:59 | 16.31951 | -61.55674 | 24970 ft | 335 kts | 165° |
| 2026-05-03 23:59 | 16.29716 | -61.54997 | 24971 ft | 335 kts | 166° |
| 2026-05-04 00:00 | 16.27505 | -61.54321 | 24969 ft | 336 kts | 165° |
| 2026-05-04 00:00 | 16.25260 | -61.53633 | 24972 ft | 336 kts | 165° |
| 2026-05-04 00:00 | 16.23015 | -61.52946 | 24973 ft | 336 kts | 165° |
| 2026-05-04 00:00 | 16.20775 | -61.52258 | 24973 ft | 336 kts | 164° |
| 2026-05-04 00:01 | 16.18536 | -61.51557 | 24975 ft | 336 kts | 164° |
| 2026-05-04 00:01 | 16.16297 | -61.50860 | 24988 ft | 336 kts | 164° |
| 2026-05-04 00:01 | 16.14054 | -61.50162 | 24987 ft | 336 kts | 165° |
| 2026-05-04 00:01 | 16.11813 | -61.49463 | 24986 ft | 336 kts | 165° |
| 2026-05-04 00:02 | 16.09571 | -61.48772 | 24986 ft | 337 kts | 165° |
| 2026-05-04 00:02 | 16.07359 | -61.48079 | 24993 ft | 337 kts | 164° |
| 2026-05-04 00:02 | 16.05116 | -61.47378 | 24992 ft | 336 kts | 165° |
| 2026-05-04 00:02 | 16.02876 | -61.46687 | 24991 ft | 336 kts | 165° |
| 2026-05-04 00:03 | 16.00635 | -61.45986 | 24994 ft | 336 kts | 164° |
| 2026-05-04 00:03 | 15.98395 | -61.45292 | 24994 ft | 336 kts | 165° |
| 2026-05-04 00:03 | 15.96153 | -61.44597 | 24995 ft | 337 kts | 165° |
| 2026-05-04 00:03 | 15.93908 | -61.43903 | 24995 ft | 336 kts | 165° |
| 2026-05-04 00:04 | 15.91664 | -61.43203 | 24989 ft | 337 kts | 165° |
| 2026-05-04 00:04 | 15.89467 | -61.42516 | 24991 ft | 336 kts | 164° |
| 2026-05-04 00:04 | 15.87216 | -61.41823 | 24992 ft | 335 kts | 165° |
| 2026-05-04 00:04 | 15.84981 | -61.41128 | 24993 ft | 336 kts | 164° |
| 2026-05-04 00:05 | 15.82741 | -61.40434 | 24995 ft | 336 kts | 165° |
| 2026-05-04 00:05 | 15.80498 | -61.39736 | 24991 ft | 337 kts | 165° |
| 2026-05-04 00:05 | 15.78249 | -61.39044 | 24993 ft | 337 kts | 164° |
| 2026-05-04 00:05 | 15.76004 | -61.38344 | 24993 ft | 337 kts | 165° |
| 2026-05-04 00:06 | 15.73762 | -61.37637 | 24996 ft | 337 kts | 164° |
| 2026-05-04 00:06 | 15.71553 | -61.36932 | 24997 ft | 336 kts | 164° |
| 2026-05-04 00:06 | 15.69319 | -61.36224 | 24997 ft | 336 kts | 164° |
| 2026-05-04 00:06 | 15.67079 | -61.35525 | 24996 ft | 336 kts | 165° |
| 2026-05-04 00:07 | 15.64842 | -61.34827 | 24997 ft | 335 kts | 165° |
| 2026-05-04 00:07 | 15.62605 | -61.34138 | 25000 ft | 335 kts | 164° |
| 2026-05-04 00:07 | 15.60370 | -61.33449 | 25000 ft | 335 kts | 164° |
| 2026-05-04 00:07 | 15.58140 | -61.32756 | 25001 ft | 335 kts | 164° |
| 2026-05-04 00:08 | 15.55910 | -61.32062 | 24999 ft | 334 kts | 164° |
| 2026-05-04 00:08 | 15.53718 | -61.31384 | 25000 ft | 334 kts | 164° |
| 2026-05-04 00:08 | 15.51491 | -61.30698 | 25002 ft | 334 kts | 164° |
| 2026-05-04 00:08 | 15.49261 | -61.30008 | 24999 ft | 334 kts | 164° |
| 2026-05-04 00:09 | 15.47031 | -61.29320 | 25001 ft | 335 kts | 164° |
| 2026-05-04 00:09 | 15.44803 | -61.28631 | 24990 ft | 334 kts | 164° |
| 2026-05-04 00:09 | 15.42575 | -61.27942 | 24986 ft | 334 kts | 165° |
| 2026-05-04 00:09 | 15.40350 | -61.27255 | 24987 ft | 334 kts | 164° |
| 2026-05-04 00:10 | 15.38127 | -61.26565 | 24984 ft | 334 kts | 165° |
| 2026-05-04 00:10 | 15.35903 | -61.25882 | 24984 ft | 334 kts | 164° |
| 2026-05-04 00:10 | 15.33708 | -61.25203 | 24985 ft | 334 kts | 164° |
| 2026-05-04 00:10 | 15.31479 | -61.24514 | 24988 ft | 334 kts | 164° |
| 2026-05-04 00:11 | 15.29248 | -61.23827 | 24986 ft | 334 kts | 164° |
| 2026-05-04 00:11 | 15.27019 | -61.23138 | 24985 ft | 334 kts | 164° |
| 2026-05-04 00:11 | 15.24792 | -61.22451 | 24984 ft | 334 kts | 164° |
| 2026-05-04 00:11 | 15.22563 | -61.21765 | 24986 ft | 334 kts | 164° |
| 2026-05-04 00:12 | 15.20341 | -61.21079 | 24982 ft | 334 kts | 164° |
| 2026-05-04 00:12 | 15.18113 | -61.20395 | 24982 ft | 334 kts | 164° |
| 2026-05-04 00:12 | 15.15916 | -61.19714 | 24980 ft | 334 kts | 164° |
| 2026-05-04 00:12 | 15.13684 | -61.19031 | 24981 ft | 334 kts | 164° |
| 2026-05-04 00:13 | 15.11457 | -61.18347 | 24918 ft | 334 kts | 164° |
| 2026-05-04 00:13 | 15.09240 | -61.17670 | 24697 ft | 333 kts | 164° |
| 2026-05-04 00:13 | 15.06986 | -61.16985 | 24476 ft | 342 kts | 164° |
| 2026-05-04 00:13 | 15.04708 | -61.16298 | 24256 ft | 335 kts | 164° |
| 2026-05-04 00:14 | 15.02512 | -61.15645 | 24031 ft | 324 kts | 164° |
| 2026-05-04 00:14 | 15.00380 | -61.14994 | 23811 ft | 315 kts | 164° |
| 2026-05-04 00:14 | 14.98303 | -61.14352 | 23585 ft | 308 kts | 164° |
| 2026-05-04 00:14 | 14.96269 | -61.13729 | 23322 ft | 302 kts | 164° |
| 2026-05-04 00:15 | 14.94293 | -61.13121 | 23062 ft | 298 kts | 164° |
| 2026-05-04 00:15 | 14.92322 | -61.12516 | 22805 ft | 294 kts | 164° |
| 2026-05-04 00:15 | 14.90378 | -61.11917 | 22542 ft | 290 kts | 164° |
| 2026-05-04 00:15 | 14.88451 | -61.11322 | 22289 ft | 288 kts | 164° |
| 2026-05-04 00:16 | 14.86535 | -61.10736 | 22040 ft | 286 kts | 164° |
| 2026-05-04 00:16 | 14.84632 | -61.10152 | 21792 ft | 284 kts | 164° |
| 2026-05-04 00:16 | 14.82741 | -61.09570 | 21548 ft | 284 kts | 164° |
| 2026-05-04 00:16 | 14.80848 | -61.08990 | 21307 ft | 283 kts | 163° |
| 2026-05-04 00:17 | 14.78964 | -61.08411 | 21071 ft | 282 kts | 163° |
| 2026-05-04 00:17 | 14.77086 | -61.07835 | 20825 ft | 282 kts | 163° |
| 2026-05-04 00:17 | 14.75240 | -61.07267 | 20588 ft | 280 kts | 163° |
| 2026-05-04 00:17 | 14.73374 | -61.06695 | 20358 ft | 279 kts | 163° |
| 2026-05-04 00:18 | 14.71512 | -61.06122 | 20120 ft | 279 kts | 163° |
| 2026-05-04 00:18 | 14.69655 | -61.05555 | 19888 ft | 278 kts | 163° |
| 2026-05-04 00:18 | 14.67803 | -61.04982 | 19660 ft | 277 kts | 162° |
| 2026-05-04 00:18 | 14.65954 | -61.04416 | 19428 ft | 277 kts | 162° |
| 2026-05-04 00:19 | 14.64108 | -61.03851 | 19201 ft | 277 kts | 162° |
| 2026-05-04 00:19 | 14.62266 | -61.03284 | 18974 ft | 276 kts | 162° |
| 2026-05-04 00:19 | 14.60453 | -61.02725 | 18758 ft | 275 kts | 162° |
| 2026-05-04 00:19 | 14.58602 | -61.02257 | 18535 ft | 275 kts | 175° |
| 2026-05-04 00:20 | 14.56692 | -61.02396 | 18312 ft | 277 kts | 188° |
| 2026-05-04 00:20 | 14.54789 | -61.02745 | 18059 ft | 279 kts | 189° |
| 2026-05-04 00:20 | 14.52875 | -61.03100 | 17804 ft | 280 kts | 188° |
| 2026-05-04 00:20 | 14.50949 | -61.03404 | 17547 ft | 280 kts | 186° |
| 2026-05-04 00:21 | 14.49013 | -61.03655 | 17290 ft | 281 kts | 185° |
| 2026-05-04 00:21 | 14.47073 | -61.03902 | 17051 ft | 281 kts | 186° |
| 2026-05-04 00:21 | 14.45165 | -61.04145 | 16809 ft | 281 kts | 186° |
| 2026-05-04 00:21 | 14.43223 | -61.04395 | 16560 ft | 281 kts | 186° |
| 2026-05-04 00:22 | 14.41280 | -61.04648 | 16320 ft | 281 kts | 185° |
| 2026-05-04 00:22 | 14.39340 | -61.04900 | 16081 ft | 281 kts | 186° |
| 2026-05-04 00:22 | 14.37398 | -61.05159 | 15840 ft | 281 kts | 185° |
| 2026-05-04 00:22 | 14.35460 | -61.05421 | 15575 ft | 282 kts | 185° |
| 2026-05-04 00:23 | 14.33500 | -61.05688 | 15227 ft | 285 kts | 186° |
| 2026-05-04 00:23 | 14.31535 | -61.05961 | 14880 ft | 285 kts | 184° |
| 2026-05-04 00:23 | 14.29589 | -61.06225 | 14535 ft | 285 kts | 185° |
| 2026-05-04 00:23 | 14.27626 | -61.06483 | 14200 ft | 285 kts | 185° |
| 2026-05-04 00:24 | 14.25658 | -61.06736 | 13867 ft | 285 kts | 183° |
| 2026-05-04 00:24 | 14.23699 | -61.07001 | 13484 ft | 283 kts | 185° |
| 2026-05-04 00:24 | 14.21743 | -61.07264 | 13109 ft | 283 kts | 184° |
| 2026-05-04 00:24 | 14.19791 | -61.07530 | 12737 ft | 283 kts | 185° |
| 2026-05-04 00:25 | 14.17843 | -61.07783 | 12370 ft | 282 kts | 185° |
| 2026-05-04 00:25 | 14.15904 | -61.08037 | 12006 ft | 281 kts | 184° |
| 2026-05-04 00:25 | 14.13965 | -61.08291 | 11649 ft | 281 kts | 184° |
| 2026-05-04 00:25 | 14.12034 | -61.08544 | 11293 ft | 280 kts | 182° |
| 2026-05-04 00:26 | 14.10139 | -61.08801 | 10938 ft | 274 kts | 184° |
| 2026-05-04 00:26 | 14.08277 | -61.09056 | 10601 ft | 266 kts | 184° |
| 2026-05-04 00:26 | 14.06465 | -61.09301 | 10261 ft | 260 kts | 183° |
| 2026-05-04 00:26 | 14.04682 | -61.09539 | 9920 ft | 256 kts | 183° |
| 2026-05-04 00:27 | 14.02931 | -61.09771 | 9546 ft | 252 kts | 183° |
| 2026-05-04 00:27 | 14.01198 | -61.10000 | 9172 ft | 250 kts | 183° |
| 2026-05-04 00:27 | 13.99485 | -61.10230 | 8795 ft | 247 kts | 183° |
| 2026-05-04 00:27 | 13.97789 | -61.10450 | 8436 ft | 245 kts | 183° |
| 2026-05-04 00:28 | 13.96103 | -61.10675 | 8073 ft | 244 kts | 183° |
| 2026-05-04 00:28 | 13.94449 | -61.10896 | 7726 ft | 242 kts | 183° |
| 2026-05-04 00:28 | 13.92784 | -61.11119 | 7365 ft | 241 kts | 183° |
| 2026-05-04 00:28 | 13.91130 | -61.11334 | 7016 ft | 238 kts | 182° |
| 2026-05-04 00:29 | 13.89486 | -61.11545 | 6665 ft | 237 kts | 183° |
| 2026-05-04 00:29 | 13.87844 | -61.11753 | 6303 ft | 238 kts | 183° |
| 2026-05-04 00:29 | 13.86202 | -61.11959 | 5929 ft | 238 kts | 182° |
| 2026-05-04 00:29 | 13.84591 | -61.12259 | 5564 ft | 237 kts | 198° |
| 2026-05-04 00:30 | 13.83291 | -61.13311 | 5203 ft | 243 kts | 229° |
| 2026-05-04 00:30 | 13.82318 | -61.14702 | 4844 ft | 242 kts | 238° |
| 2026-05-04 00:30 | 13.81808 | -61.16342 | 4475 ft | 242 kts | 259° |
| 2026-05-04 00:30 | 13.81502 | -61.18055 | 4101 ft | 244 kts | 260° |
| 2026-05-04 00:31 | 13.81237 | -61.19781 | 3744 ft | 245 kts | 261° |
| 2026-05-04 00:31 | 13.80973 | -61.21514 | 3375 ft | 245 kts | 262° |
| 2026-05-04 00:31 | 13.80722 | -61.23230 | 3161 ft | 240 kts | 261° |
| 2026-05-04 00:31 | 13.80489 | -61.24894 | 3055 ft | 230 kts | 261° |
| 2026-05-04 00:32 | 13.80052 | -61.26413 | 3013 ft | 221 kts | 234° |
| 2026-05-04 00:32 | 13.78872 | -61.27356 | 2985 ft | 215 kts | 192° |
| 2026-05-04 00:32 | 13.77457 | -61.27339 | 2971 ft | 205 kts | 154° |
| 2026-05-04 00:32 | 13.76421 | -61.26440 | 2980 ft | 193 kts | 121° |
| 2026-05-04 00:33 | 13.75683 | -61.25274 | 2968 ft | 195 kts | 120° |
| 2026-05-04 00:33 | 13.74241 | -61.22891 | 2954 ft | 197 kts | 118° |
| 2026-05-04 00:33 | 13.73702 | -61.21626 | 2955 ft | 190 kts | 97° |
| 2026-05-04 00:34 | 13.73581 | -61.20284 | 2961 ft | 189 kts | 94° |
| 2026-05-04 00:34 | 13.73479 | -61.18929 | 2965 ft | 191 kts | 93° |
| 2026-05-04 00:34 | 13.73385 | -61.17608 | 2970 ft | 186 kts | 93° |
| 2026-05-04 00:34 | 13.73310 | -61.16301 | 2965 ft | 181 kts | 92° |
| 2026-05-04 00:35 | 13.73264 | -61.15025 | 2972 ft | 174 kts | 91° |
| 2026-05-04 00:35 | 13.73242 | -61.13833 | 2961 ft | 160 kts | 91° |
| 2026-05-04 00:35 | 13.73237 | -61.12731 | 2959 ft | 149 kts | 90° |
| 2026-05-04 00:35 | 13.73230 | -61.11690 | 2944 ft | 143 kts | 89° |
| 2026-05-04 00:36 | 13.73242 | -61.10657 | 2775 ft | 144 kts | 87° |
| 2026-05-04 00:36 | 13.73246 | -61.09672 | 2821 ft | 131 kts | 89° |
| 2026-05-04 00:36 | 13.73290 | -61.08760 | 2825 ft | 128 kts | 87° |
| 2026-05-04 00:36 | 13.73323 | -61.07851 | 2766 ft | 127 kts | 88° |
| 2026-05-04 00:37 | 13.73329 | -61.06937 | 2676 ft | 123 kts | 90° |
| 2026-05-04 00:37 | 13.73295 | -61.06107 | 2692 ft | 109 kts | 90° |
| 2026-05-04 00:37 | 13.73287 | -61.05336 | 2608 ft | 106 kts | 89° |
| 2026-05-04 00:37 | 13.73302 | -61.04587 | 2549 ft | 107 kts | 88° |
| 2026-05-04 00:38 | 13.73321 | -61.03810 | 2532 ft | 111 kts | 86° |
| 2026-05-04 00:38 | 13.73347 | -61.03017 | 2514 ft | 114 kts | 88° |
| 2026-05-04 00:38 | 13.73320 | -61.02186 | 2445 ft | 119 kts | 91° |
| 2026-05-04 00:38 | 13.73275 | -61.01349 | 2364 ft | 120 kts | 91° |
| 2026-05-04 00:39 | 13.73243 | -61.00472 | 2035 ft | 124 kts | 90° |
| 2026-05-04 00:39 | 13.73275 | -60.99563 | 1444 ft | 130 kts | 84° |
| 2026-05-04 00:39 | 13.73331 | -60.98626 | 888 ft | 131 kts | 87° |
| 2026-05-04 00:39 | 13.73341 | -60.97731 | 402 ft | 119 kts | 85° |
| 2026-05-04 00:40 | 13.73347 | -60.97196 | 205 ft | 109 kts | 88° |
| 2026-05-04 00:40 | 13.73346 | -60.96110 | 30 ft | 113 kts | 89° |
| 2026-05-04 00:40 | 13.73345 | -60.95437 | 25 ft | 53 kts | 90° |
| 2026-05-04 00:40 | 13.73345 | -60.95362 | 26 ft | 0 kts | 90° |
| 2026-05-04 00:41 | 13.73344 | -60.95337 | 28 ft | 15 kts | 96° |
| 2026-05-04 00:41 | 13.73342 | -60.95199 | 23 ft | 15 kts | 87° |
| 2026-05-04 00:41 | 13.73411 | -60.95159 | 23 ft | 13 kts | 360° |
| 2026-05-04 00:41 | 13.73415 | -60.95159 | 23 ft | 0 kts | 359° |
| 2026-05-04 00:42 | 13.73475 | -60.95156 | 26 ft | 16 kts | 1° |
| 2026-05-04 00:42 | 13.73521 | -60.95087 | 24 ft | 16 kts | 89° |
| 2026-05-04 00:43 | 13.73523 | -60.94949 | 24 ft | 11 kts | 90° |
| 2026-05-04 00:43 | 13.73523 | -60.94908 | 25 ft | 6 kts | 91° |
| 2026-05-04 00:43 | 13.73549 | -60.94861 | 26 ft | 6 kts | 18° |
| 2026-05-04 00:43 | 13.73600 | -60.94858 | 24 ft | 8 kts | 360° |
| 2026-05-04 00:44 | 13.73652 | -60.94858 | 24 ft | 3 kts | 0° |
| 2026-05-04 00:44 | 13.73658 | -60.94858 | 24 ft | 0 kts | 359° |
| 2026-05-04 00:59 | 13.73657 | -60.94858 | 24 ft | 0 kts | 359° |
| 2026-05-04 01:12 | 13.73656 | -60.94858 | 24 ft | 0 kts | 359° |
| 2026-05-04 01:24 | 13.73655 | -60.94858 | 24 ft | 0 kts | 359° |
| 2026-05-04 01:37 | 13.73654 | -60.94858 | 24 ft | 0 kts | 359° |